Time;durP1;ratioP1;P1;durP2;ratioP2;P2;SDS_P1;SDS_P2;PMS_P1;PMS_P2;Temp;Humidity;BMP_temperature;BMP_pressure;BME280_temperature;BME280_humidity;BME280_pressure;Samples;Min_cycle;Max_cycle;Signal;HPM_P1;HPM_P2
2023/08/16 00:01:16;;;;;;;4.57;3.90;;;20.60;99.90;;;;;;4894821;29;20415;-78
2023/08/16 00:03:42;;;;;;;5.18;3.92;;;20.50;99.90;;;;;;4896233;29;20745;-79
2023/08/16 00:06:12;;;;;;;5.15;4.22;;;20.40;99.90;;;;;;4908868;29;20941;-79
2023/08/16 00:08:38;;;;;;;4.55;4.15;;;20.40;99.90;;;;;;4896366;29;20404;-78
2023/08/16 00:11:03;;;;;;;4.20;3.90;;;20.30;99.90;;;;;;4895917;29;20429;-79
2023/08/16 00:13:29;;;;;;;6.23;4.23;;;20.30;99.90;;;;;;4895079;29;20483;-78
2023/08/16 00:15:55;;;;;;;4.30;3.90;;;20.60;99.90;;;;;;4892660;29;20474;-79
2023/08/16 00:18:20;;;;;;;5.53;4.20;;;20.20;99.90;;;;;;4893713;29;20417;-79
2023/08/16 00:20:46;;;;;;;5.70;4.30;;;20.90;99.90;;;;;;4894609;29;20407;-78
2023/08/16 00:23:11;;;;;;;4.50;4.05;;;20.10;99.90;;;;;;4884898;29;20416;-79
2023/08/16 00:25:38;;;;;;;4.70;4.30;;;19.50;99.90;;;;;;4881404;29;20414;-78
2023/08/16 00:28:04;;;;;;;4.50;4.10;;;19.90;99.90;;;;;;4889981;29;20488;-78
2023/08/16 00:30:30;;;;;;;4.28;3.97;;;19.90;99.90;;;;;;4889655;29;20896;-79
2023/08/16 00:32:55;;;;;;;4.97;4.30;;;20.60;99.90;;;;;;4888338;29;20400;-79
2023/08/16 00:35:21;;;;;;;5.80;4.40;;;19.80;99.90;;;;;;4889934;29;20427;-79
2023/08/16 00:37:46;;;;;;;4.30;4.00;;;21.00;99.90;;;;;;4886099;29;20484;-79
2023/08/16 00:40:12;;;;;;;5.88;4.10;;;19.90;99.90;;;;;;4889924;29;20411;-78
2023/08/16 00:42:37;;;;;;;4.60;4.20;;;19.70;99.90;;;;;;4882284;29;20494;-78
2023/08/16 00:45:03;;;;;;;6.47;4.38;;;19.90;99.90;;;;;;4888273;29;20408;-79
2023/08/16 00:47:29;;;;;;;5.80;3.90;;;19.90;99.90;;;;;;4886107;29;20416;-78
2023/08/16 00:49:55;;;;;;;4.83;4.40;;;19.60;99.90;;;;;;4888652;29;20394;-78
2023/08/16 00:52:20;;;;;;;5.88;4.57;;;19.50;99.90;;;;;;4889882;29;20891;-78
2023/08/16 00:54:46;;;;;;;4.50;4.20;;;19.20;99.90;;;;;;4891626;29;20909;-78
2023/08/16 00:57:12;;;;;;;4.60;4.20;;;19.70;99.90;;;;;;4892738;29;20517;-79
2023/08/16 00:59:38;;;;;;;4.40;4.00;;;19.70;99.90;;;;;;4892724;29;20428;-78
2023/08/16 01:02:04;;;;;;;5.00;4.28;;;18.90;99.90;;;;;;4893192;29;20395;-78
2023/08/16 01:04:30;;;;;;;4.78;4.25;;;19.50;99.90;;;;;;4892275;29;20765;-78
2023/08/16 01:06:58;;;;;;;4.35;4.05;;;18.90;99.90;;;;;;4886410;29;20434;-79
2023/08/16 01:09:25;;;;;;;4.80;4.40;;;19.30;99.90;;;;;;4895274;29;20421;-79
2023/08/16 01:12:06;;;;;;;6.13;5.00;;;19.40;99.90;;;;;;4897256;29;20414;-79
2023/08/16 01:14:43;;;;;;;4.30;3.90;;;19.60;99.90;;;;;;4894717;29;20404;-78
2023/08/16 01:17:12;;;;;;;4.50;4.10;;;19.20;99.90;;;;;;4896000;29;20395;-79
2023/08/16 01:19:39;;;;;;;5.97;4.70;;;19.30;99.90;;;;;;4895445;29;20854;-79
2023/08/16 01:22:42;;;;;;;5.25;4.28;;;19.80;99.90;;;;;;4888464;29;20492;-79
2023/08/16 01:25:34;;;;;;;4.30;4.00;;;19.60;99.90;;;;;;4891873;29;20470;-79
2023/08/16 01:28:01;;;;;;;4.60;4.30;;;19.60;99.90;;;;;;4887265;29;20405;-78
2023/08/16 01:30:28;;;;;;;4.63;4.22;;;19.50;99.90;;;;;;4890026;29;20412;-79
2023/08/16 01:32:53;;;;;;;4.47;4.10;;;19.80;99.90;;;;;;4894375;29;20463;-79
2023/08/16 01:35:19;;;;;;;4.47;4.03;;;19.30;99.90;;;;;;4894326;29;20890;-79
2023/08/16 01:37:45;;;;;;;4.70;4.30;;;19.20;99.90;;;;;;4894849;29;20828;-79
2023/08/16 01:40:11;;;;;;;5.73;4.20;;;18.80;99.90;;;;;;4893319;29;20430;-79
2023/08/16 01:42:42;;;;;;;4.90;4.45;;;19.30;99.90;;;;;;4898270;29;20400;-78
2023/08/16 01:45:09;;;;;;;5.60;4.50;;;19.20;99.90;;;;;;4888475;29;21021;-79
2023/08/16 01:47:36;;;;;;;4.70;3.80;;;19.20;99.90;;;;;;4884154;29;20413;-79
2023/08/16 01:50:03;;;;;;;4.95;4.55;;;19.10;99.90;;;;;;4885060;29;20424;-79
2023/08/16 01:52:28;;;;;;;4.80;4.40;;;19.10;99.90;;;;;;4886503;29;20897;-78
2023/08/16 01:54:54;;;;;;;5.20;4.70;;;18.60;99.90;;;;;;4886238;29;20487;-79
2023/08/16 01:57:20;;;;;;;6.00;4.20;;;18.80;99.90;;;;;;4889383;29;20830;-79
2023/08/16 01:59:45;;;;;;;5.63;4.30;;;19.10;99.90;;;;;;4889328;29;20845;-79
2023/08/16 02:02:11;;;;;;;3.92;3.63;;;18.60;99.90;;;;;;4889167;29;20393;-79
2023/08/16 02:04:36;;;;;;;4.90;4.40;;;19.20;99.90;;;;;;4889591;29;20392;-78
2023/08/16 02:07:02;;;;;;;5.00;4.28;;;19.00;99.90;;;;;;4887623;29;20396;-79
2023/08/16 02:09:27;;;;;;;5.30;4.80;;;19.00;99.90;;;;;;4888405;29;20395;-79
2023/08/16 02:11:53;;;;;;;4.50;4.10;;;18.90;99.90;;;;;;4887057;29;20471;-78
2023/08/16 02:14:18;;;;;;;5.20;4.80;;;19.00;99.90;;;;;;4887842;29;20433;-78
2023/08/16 02:16:44;;;;;;;5.70;5.10;;;18.50;99.90;;;;;;4887565;29;20793;-79
2023/08/16 02:19:09;;;;;;;5.57;4.60;;;18.90;99.90;;;;;;4887012;29;20412;-79
2023/08/16 02:21:35;;;;;;;4.93;4.53;;;19.10;99.90;;;;;;4886453;29;20400;-78
2023/08/16 02:24:00;;;;;;;5.10;4.60;;;19.30;99.90;;;;;;4885929;29;20419;-79
2023/08/16 02:26:26;;;;;;;5.07;4.38;;;19.30;99.90;;;;;;4888052;29;20404;-78
2023/08/16 02:28:51;;;;;;;5.37;4.67;;;19.00;99.90;;;;;;4888097;29;20740;-79
2023/08/16 02:31:17;;;;;;;5.38;4.85;;;19.20;99.90;;;;;;4885407;29;20420;-78
2023/08/16 02:33:43;;;;;;;5.00;4.50;;;19.40;99.90;;;;;;4890809;29;20400;-78
2023/08/16 02:36:08;;;;;;;5.40;4.07;;;19.20;99.90;;;;;;4892252;29;20776;-79
2023/08/16 02:38:34;;;;;;;5.30;4.80;;;19.20;99.90;;;;;;4891291;29;20397;-78
2023/08/16 02:41:00;;;;;;;4.80;4.40;;;19.60;99.90;;;;;;4890752;29;20400;-78
2023/08/16 02:43:25;;;;;;;4.70;4.30;;;19.90;99.90;;;;;;4891182;29;20401;-78
2023/08/16 02:45:52;;;;;;;5.68;5.18;;;20.00;99.90;;;;;;4891380;29;20408;-79
2023/08/16 02:48:18;;;;;;;5.67;5.27;;;20.10;99.90;;;;;;4892099;29;20504;-79
2023/08/16 02:50:44;;;;;;;5.37;4.90;;;19.60;99.90;;;;;;4890591;29;20448;-78
2023/08/16 02:53:10;;;;;;;6.10;4.90;;;20.10;99.90;;;;;;4887434;29;21049;-79
2023/08/16 02:55:35;;;;;;;5.60;5.10;;;20.00;99.90;;;;;;4890347;29;20513;-77
2023/08/16 02:58:01;;;;;;;5.53;5.13;;;20.10;99.90;;;;;;4890512;29;20483;-79
2023/08/16 03:00:27;;;;;;;5.50;5.00;;;20.10;99.90;;;;;;4894280;29;20397;-79
2023/08/16 03:02:52;;;;;;;5.40;4.90;;;20.00;99.90;;;;;;4891533;29;20400;-78
2023/08/16 03:05:18;;;;;;;5.40;5.00;;;20.20;99.90;;;;;;4892516;29;20401;-78
2023/08/16 03:07:43;;;;;;;6.43;4.63;;;20.10;99.90;;;;;;4890783;29;20411;-78
2023/08/16 03:10:09;;;;;;;4.97;4.57;;;20.10;99.90;;;;;;4890198;29;20865;-79
2023/08/16 03:12:34;;;;;;;5.43;4.93;;;20.10;99.90;;;;;;4889249;29;20432;-79
2023/08/16 03:15:00;;;;;;;5.20;4.60;;;20.10;99.90;;;;;;4891165;29;20516;-78
2023/08/16 03:17:26;;;;;;;7.03;4.20;;;19.50;99.90;;;;;;4891966;29;20551;-78
2023/08/16 03:19:52;;;;;;;4.75;4.35;;;19.70;99.90;;;;;;4891156;29;20397;-78
2023/08/16 03:22:18;;;;;;;4.40;4.00;;;19.90;99.90;;;;;;4890488;29;20419;-78
2023/08/16 03:24:43;;;;;;;5.10;4.60;;;19.50;99.90;;;;;;4889002;29;20935;-79
2023/08/16 03:27:09;;;;;;;4.70;4.30;;;19.70;99.90;;;;;;4888019;29;21106;-79
2023/08/16 03:29:34;;;;;;;4.80;4.30;;;19.60;99.90;;;;;;4890053;29;20400;-79
2023/08/16 03:32:00;;;;;;;5.03;4.60;;;19.50;99.90;;;;;;4888017;29;20405;-78
2023/08/16 03:34:25;;;;;;;4.50;4.20;;;19.00;99.90;;;;;;4889456;29;20870;-78
2023/08/16 03:36:51;;;;;;;5.03;4.55;;;19.50;99.90;;;;;;4887179;29;20397;-78
2023/08/16 03:39:16;;;;;;;5.20;4.40;;;20.10;99.90;;;;;;4887259;29;20909;-78
2023/08/16 03:41:42;;;;;;;5.30;4.60;;;19.60;99.90;;;;;;4890228;29;20401;-77
2023/08/16 03:44:07;;;;;;;5.77;4.73;;;19.20;99.90;;;;;;4891466;29;20405;-78
2023/08/16 03:46:34;;;;;;;5.40;4.90;;;19.70;99.90;;;;;;4883360;29;20781;-79
2023/08/16 03:48:59;;;;;;;5.28;4.78;;;19.60;99.90;;;;;;4880474;29;20401;-78
2023/08/16 03:51:25;;;;;;;5.50;4.90;;;19.70;99.90;;;;;;4882080;29;20469;-78
2023/08/16 03:53:50;;;;;;;5.10;4.70;;;19.30;99.90;;;;;;4881535;29;20896;-79
2023/08/16 03:56:16;;;;;;;6.90;5.20;;;19.80;99.90;;;;;;4882678;29;20396;-79
2023/08/16 03:58:42;;;;;;;5.97;4.87;;;20.40;99.90;;;;;;4882827;29;20492;-79
2023/08/16 04:01:07;;;;;;;5.45;5.05;;;19.50;99.90;;;;;;4883240;29;20443;-78
2023/08/16 04:03:33;;;;;;;5.03;4.63;;;19.70;99.90;;;;;;4883493;29;20460;-79
2023/08/16 04:05:58;;;;;;;4.70;4.20;;;19.80;99.90;;;;;;4883433;29;20408;-78
2023/08/16 04:08:24;;;;;;;5.70;4.68;;;19.60;99.90;;;;;;4883446;29;20784;-78
2023/08/16 04:10:49;;;;;;;5.00;4.60;;;19.80;99.90;;;;;;4880596;29;20931;-79
2023/08/16 04:13:15;;;;;;;5.68;5.18;;;18.60;99.90;;;;;;4879991;29;20409;-78
2023/08/16 04:15:41;;;;;;;4.93;4.43;;;19.40;99.90;;;;;;4879815;29;20428;-78
2023/08/16 04:18:07;;;;;;;5.57;5.07;;;19.60;99.90;;;;;;4879933;29;20932;-78
2023/08/16 04:20:32;;;;;;;5.65;4.97;;;19.60;99.90;;;;;;4880595;29;20397;-78
2023/08/16 04:22:59;;;;;;;5.40;4.90;;;19.60;99.90;;;;;;4881177;29;20405;-78
2023/08/16 04:25:25;;;;;;;5.38;4.97;;;;;;;;;;4881321;29;20876;-78
2023/08/16 04:27:50;;;;;;;5.45;4.95;;;19.70;99.90;;;;;;4880115;29;20412;-78
2023/08/16 04:30:16;;;;;;;5.88;5.30;;;19.50;99.90;;;;;;4880396;29;20416;-78
2023/08/16 04:32:42;;;;;;;5.37;4.87;;;18.60;99.90;;;;;;4881428;29;20407;-79
2023/08/16 04:35:08;;;;;;;5.83;5.30;;;19.30;99.90;;;;;;4882057;29;20491;-78
2023/08/16 04:37:34;;;;;;;5.10;4.70;;;19.40;99.90;;;;;;4881782;29;20396;-78
2023/08/16 04:39:59;;;;;;;6.10;5.00;;;19.00;99.90;;;;;;4882011;29;20420;-78
2023/08/16 04:42:25;;;;;;;7.30;5.60;;;19.00;99.90;;;;;;4881635;29;20545;-78
2023/08/16 04:44:51;;;;;;;5.60;5.00;;;17.90;99.90;;;;;;4881214;29;20401;-78
2023/08/16 04:47:16;;;;;;;6.70;4.60;;;19.30;99.90;;;;;;4879711;29;20446;-78
2023/08/16 04:49:43;;;;;;;4.70;4.30;;;19.30;99.90;;;;;;4880661;29;20405;-78
2023/08/16 04:52:08;;;;;;;5.13;4.72;;;19.10;99.90;;;;;;4879398;29;20425;-78
2023/08/16 04:54:34;;;;;;;5.10;4.70;;;19.20;99.90;;;;;;4879979;29;20408;-77
2023/08/16 04:57:00;;;;;;;5.70;5.20;;;18.60;99.90;;;;;;4879776;29;20393;-77
2023/08/16 04:59:25;;;;;;;4.80;4.30;;;19.10;99.90;;;;;;4881699;29;20400;-77
2023/08/16 05:01:51;;;;;;;5.27;4.87;;;20.60;99.90;;;;;;4886067;29;20400;-77
2023/08/16 05:04:16;;;;;;;4.90;4.47;;;19.20;99.90;;;;;;4887865;29;20401;-77
2023/08/16 05:06:42;;;;;;;5.30;4.80;;;19.10;99.90;;;;;;4889136;29;20408;-78
2023/08/16 05:09:07;;;;;;;5.53;5.03;;;18.90;99.90;;;;;;4879833;29;20411;-78
2023/08/16 05:11:33;;;;;;;5.90;5.50;;;19.20;99.90;;;;;;4880459;29;20449;-77
2023/08/16 05:13:58;;;;;;;4.80;4.30;;;19.10;99.90;;;;;;4879743;29;20413;-78
2023/08/16 05:16:24;;;;;;;5.60;5.00;;;16.20;99.90;;;;;;4880322;29;20400;-77
2023/08/16 05:18:52;;;;;;;6.17;5.50;;;19.10;99.90;;;;;;4880657;29;20396;-78
2023/08/16 05:21:18;;;;;;;5.57;5.07;;;19.10;99.90;;;;;;4880008;29;20488;-78
2023/08/16 05:23:44;;;;;;;5.63;5.13;;;19.00;99.90;;;;;;4881006;29;20437;-77
2023/08/16 05:26:10;;;;;;;5.20;4.80;;;;;;;;;;4881119;29;20477;-77
2023/08/16 05:28:36;;;;;;;5.20;4.70;;;19.30;99.90;;;;;;4891122;29;20397;-77
2023/08/16 05:31:11;;;;;;;5.70;5.20;;;18.00;99.90;;;;;;4887262;29;20816;-78
2023/08/16 05:33:38;;;;;;;5.90;5.30;;;18.90;99.90;;;;;;4879001;29;20416;-78
2023/08/16 05:36:05;;;;;;;6.30;5.20;;;19.30;99.90;;;;;;4880251;29;20404;-78
2023/08/16 05:38:31;;;;;;;5.55;5.05;;;19.40;99.90;;;;;;4879641;29;20405;-78
2023/08/16 05:40:58;;;;;;;6.55;5.07;;;19.40;99.90;;;;;;4879846;29;20793;-78
2023/08/16 05:43:23;;;;;;;6.05;5.45;;;20.60;99.90;;;;;;4879314;29;20487;-78
2023/08/16 05:45:51;;;;;;;4.73;4.43;;;19.40;99.90;;;;;;4880713;29;20455;-78
2023/08/16 05:48:16;;;;;;;5.50;5.00;;;19.50;99.90;;;;;;4880956;29;20415;-77
2023/08/16 05:50:43;;;;;;;5.40;4.90;;;19.40;99.90;;;;;;4880807;29;20412;-77
2023/08/16 05:53:09;;;;;;;5.15;4.65;;;19.50;99.90;;;;;;4881660;29;20405;-78
2023/08/16 05:55:34;;;;;;;7.05;5.80;;;19.50;99.90;;;;;;4882214;29;20396;-78
2023/08/16 05:58:00;;;;;;;7.30;5.17;;;18.50;99.90;;;;;;4882763;29;20905;-78
2023/08/16 06:00:26;;;;;;;5.15;4.72;;;22.00;99.90;;;;;;4882270;29;20452;-78
2023/08/16 06:02:52;;;;;;;5.20;4.70;;;19.80;99.90;;;;;;4882378;29;20435;-77
2023/08/16 06:05:18;;;;;;;5.73;5.10;;;19.80;99.90;;;;;;4881759;29;20412;-77
2023/08/16 06:07:44;;;;;;;5.75;5.25;;;19.90;99.90;;;;;;4882126;29;20404;-77
2023/08/16 06:10:10;;;;;;;5.30;4.80;;;19.40;99.90;;;;;;4884658;29;20439;-77
2023/08/16 06:12:37;;;;;;;5.53;4.70;;;22.50;99.90;;;;;;4887832;29;20409;-78
2023/08/16 06:15:03;;;;;;;5.20;4.70;;;20.10;99.90;;;;;;4886386;29;20476;-77
2023/08/16 06:17:30;;;;;;;6.28;5.30;;;20.00;99.90;;;;;;4885493;29;20401;-77
2023/08/16 06:19:57;;;;;;;6.15;4.95;;;20.20;99.90;;;;;;4884775;29;20412;-77
2023/08/16 06:22:23;;;;;;;5.38;4.88;;;20.20;99.90;;;;;;4886538;29;20403;-77
2023/08/16 06:24:48;;;;;;;5.57;4.90;;;21.10;99.90;;;;;;4886667;29;20412;-77
2023/08/16 06:27:15;;;;;;;5.77;5.23;;;20.30;99.90;;;;;;4887900;29;20408;-77
2023/08/16 06:29:41;;;;;;;5.73;5.20;;;20.40;99.90;;;;;;4890811;29;20409;-76
2023/08/16 06:32:07;;;;;;;5.20;4.63;;;20.60;99.90;;;;;;4890919;29;20426;-76
2023/08/16 06:34:33;;;;;;;6.95;6.35;;;20.60;99.90;;;;;;4889454;29;20484;-76
2023/08/16 06:36:59;;;;;;;6.43;5.05;;;20.90;99.90;;;;;;4891396;29;20393;-76
2023/08/16 06:39:25;;;;;;;5.30;4.80;;;20.10;99.90;;;;;;4890951;29;20397;-77
2023/08/16 06:41:50;;;;;;;5.30;4.80;;;19.00;99.90;;;;;;4890605;29;20405;-76
2023/08/16 06:44:16;;;;;;;5.63;4.70;;;21.70;99.90;;;;;;4889096;29;20396;-76
2023/08/16 06:46:41;;;;;;;5.35;4.95;;;23.00;99.90;;;;;;4890030;29;20404;-78
2023/08/16 06:49:07;;;;;;;5.13;4.63;;;21.20;99.90;;;;;;4885796;29;20822;-77
2023/08/16 06:51:32;;;;;;;5.53;5.00;;;20.10;99.90;;;;;;4882405;29;20480;-79
2023/08/16 06:53:58;;;;;;;7.23;5.60;;;21.20;99.90;;;;;;4882826;29;20499;-79
2023/08/16 06:56:24;;;;;;;6.80;4.90;;;21.30;99.90;;;;;;4886059;29;20408;-77
2023/08/16 06:58:50;;;;;;;5.70;5.00;;;21.30;99.90;;;;;;4881775;29;20409;-76
2023/08/16 07:01:16;;;;;;;5.50;5.10;;;21.30;99.90;;;;;;4888967;29;20769;-77
2023/08/16 07:03:42;;;;;;;5.10;4.70;;;21.30;99.90;;;;;;4888884;29;20403;-77
2023/08/16 07:06:08;;;;;;;6.18;5.10;;;22.80;99.90;;;;;;4888821;29;20437;-77
2023/08/16 07:08:33;;;;;;;5.70;5.20;;;24.10;99.90;;;;;;4888059;29;20412;-77
2023/08/16 07:10:59;;;;;;;5.80;5.30;;;21.20;99.90;;;;;;4888829;29;20421;-77
2023/08/16 07:13:24;;;;;;;5.80;5.30;;;21.30;99.90;;;;;;4887604;29;20417;-77
2023/08/16 07:15:50;;;;;;;6.70;5.53;;;21.60;99.90;;;;;;4881459;29;20397;-77
2023/08/16 07:18:16;;;;;;;6.50;5.90;;;19.90;99.90;;;;;;4887812;29;20405;-77
2023/08/16 07:20:41;;;;;;;6.13;5.03;;;21.30;99.90;;;;;;4888743;29;20412;-78
2023/08/16 07:23:07;;;;;;;5.60;5.20;;;21.40;99.90;;;;;;4889350;29;20412;-77
2023/08/16 07:25:33;;;;;;;7.00;5.93;;;21.50;99.90;;;;;;4885019;29;20404;-77
2023/08/16 07:27:59;;;;;;;6.07;5.47;;;25.20;99.90;;;;;;4888290;29;20474;-77
2023/08/16 07:30:24;;;;;;;5.32;4.82;;;21.50;99.90;;;;;;4889465;29;20417;-77
2023/08/16 07:32:50;;;;;;;5.63;5.13;;;21.60;99.90;;;;;;4889118;29;20409;-77
2023/08/16 07:35:16;;;;;;;6.77;5.50;;;21.70;99.90;;;;;;4886068;29;20471;-77
2023/08/16 07:37:41;;;;;;;5.55;5.05;;;21.60;99.90;;;;;;4883758;29;20404;-77
2023/08/16 07:40:08;;;;;;;8.35;5.60;;;21.70;99.90;;;;;;4883516;29;21161;-78
2023/08/16 07:42:33;;;;;;;6.72;4.80;;;21.80;99.90;;;;;;4885289;29;20400;-78
2023/08/16 07:45:00;;;;;;;5.40;5.00;;;24.80;99.90;;;;;;4882270;29;20416;-79
2023/08/16 07:47:27;;;;;;;5.22;4.82;;;20.40;99.90;;;;;;4879680;29;20421;-78
2023/08/16 07:49:54;;;;;;;5.90;5.30;;;20.90;99.90;;;;;;4883917;29;20408;-78
2023/08/16 07:52:20;;;;;;;5.50;5.00;;;21.80;99.90;;;;;;4883888;29;20404;-78
2023/08/16 07:54:46;;;;;;;5.53;5.03;;;21.80;99.90;;;;;;4882558;29;20404;-78
2023/08/16 07:57:11;;;;;;;6.32;5.45;;;21.70;99.90;;;;;;4885980;29;20503;-77
2023/08/16 07:59:37;;;;;;;6.10;5.50;;;22.00;99.90;;;;;;4890876;29;20409;-77
2023/08/16 08:02:05;;;;;;;5.30;4.80;;;21.70;99.90;;;;;;4883681;29;20478;-78
2023/08/16 08:04:31;;;;;;;6.55;5.40;;;22.10;99.90;;;;;;4881220;29;20400;-77
2023/08/16 08:06:56;;;;;;;6.30;5.40;;;22.30;99.90;;;;;;4881969;29;20432;-78
2023/08/16 08:09:22;;;;;;;5.50;5.00;;;20.80;99.90;;;;;;4882241;29;20849;-78
2023/08/16 08:11:47;;;;;;;5.65;5.15;;;22.30;99.90;;;;;;4883861;29;20423;-78
2023/08/16 08:14:13;;;;;;;6.20;5.30;;;19.90;99.90;;;;;;4884559;29;20404;-77
2023/08/16 08:16:38;;;;;;;8.33;4.77;;;22.40;99.90;;;;;;4887119;29;20487;-78
2023/08/16 08:19:04;;;;;;;7.03;5.50;;;22.60;99.90;;;;;;4883681;29;20498;-78
2023/08/16 08:21:30;;;;;;;5.90;5.40;;;24.10;99.90;;;;;;4881647;29;20413;-78
2023/08/16 08:23:55;;;;;;;6.40;5.20;;;22.40;99.90;;;;;;4877105;29;20406;-77
2023/08/16 08:26:21;;;;;;;6.90;5.50;;;21.90;99.90;;;;;;4889752;29;20408;-77
2023/08/16 08:28:46;;;;;;;7.75;5.10;;;22.50;99.90;;;;;;4876393;29;20555;-77
2023/08/16 08:31:12;;;;;;;5.97;5.30;;;22.40;99.90;;;;;;4882248;29;20485;-77
2023/08/16 08:33:38;;;;;;;4.87;4.50;;;22.70;99.90;;;;;;4880402;29;20413;-77
2023/08/16 08:36:04;;;;;;;6.38;5.30;;;22.60;99.90;;;;;;4885129;29;20405;-77
2023/08/16 08:38:29;;;;;;;6.70;4.78;;;22.80;99.90;;;;;;4888212;29;20400;-77
2023/08/16 08:40:57;;;;;;;5.50;5.00;;;22.80;99.90;;;;;;4885043;29;20511;-77
2023/08/16 08:43:28;;;;;;;6.00;4.85;;;24.80;99.90;;;;;;4877983;29;20460;-77
2023/08/16 08:45:58;;;;;;;5.70;5.10;;;22.80;99.90;;;;;;4885269;29;20834;-77
2023/08/16 08:48:26;;;;;;;5.20;4.80;;;23.10;99.90;;;;;;4882233;29;20412;-77
2023/08/16 08:50:53;;;;;;;5.00;4.60;;;23.10;99.90;;;;;;4884649;29;20500;-77
2023/08/16 08:53:20;;;;;;;5.80;5.20;;;21.80;99.90;;;;;;4885249;29;20412;-77
2023/08/16 08:55:48;;;;;;;5.05;4.65;;;23.10;99.90;;;;;;4883369;29;20437;-76
2023/08/16 08:58:15;;;;;;;5.05;4.65;;;23.30;99.90;;;;;;4883035;29;20939;-77
2023/08/16 09:00:41;;;;;;;5.35;4.30;;;23.00;99.90;;;;;;4885034;29;21011;-77
2023/08/16 09:03:07;;;;;;;5.50;5.00;;;23.40;99.90;;;;;;4867094;29;20450;-77
2023/08/16 09:05:33;;;;;;;5.00;4.40;;;23.30;99.90;;;;;;4883966;29;20424;-76
2023/08/16 09:08:00;;;;;;;4.70;4.30;;;22.60;99.90;;;;;;4885579;29;20437;-77
2023/08/16 09:10:26;;;;;;;5.97;4.85;;;23.00;99.90;;;;;;4887512;29;20424;-77
2023/08/16 09:12:52;;;;;;;5.85;4.80;;;23.60;99.90;;;;;;4886971;29;20759;-77
2023/08/16 09:15:18;;;;;;;6.28;4.72;;;24.10;99.90;;;;;;4885471;29;20424;-77
2023/08/16 09:17:45;;;;;;;4.70;4.30;;;25.50;99.90;;;;;;4879584;29;20401;-77
2023/08/16 09:20:11;;;;;;;5.30;4.80;;;25.10;99.90;;;;;;4879456;29;20780;-78
2023/08/16 09:22:37;;;;;;;4.60;4.20;;;22.80;99.90;;;;;;4880674;29;20826;-77
2023/08/16 09:25:03;;;;;;;4.70;4.30;;;23.80;99.90;;;;;;4878311;29;20412;-78
2023/08/16 09:27:31;;;;;;;5.45;4.95;;;23.80;99.90;;;;;;4879940;29;20483;-77
2023/08/16 09:29:57;;;;;;;4.90;4.50;;;24.10;99.90;;;;;;4879629;29;20902;-78
2023/08/16 09:32:27;;;;;;;5.10;4.60;;;24.00;99.90;;;;;;4871270;29;20523;-77
2023/08/16 09:34:53;;;;;;;5.68;5.07;;;23.00;99.90;;;;;;4879737;29;20461;-78
2023/08/16 09:37:20;;;;;;;5.28;4.47;;;25.60;99.90;;;;;;4878470;29;20499;-78
2023/08/16 09:39:58;;;;;;;6.20;4.63;;;24.50;99.90;;;;;;4880659;29;20412;-78
2023/08/16 09:42:33;;;;;;;5.80;4.40;;;23.60;99.90;;;;;;4861500;29;20411;-78
2023/08/16 09:45:00;;;;;;;4.78;4.22;;;24.70;99.90;;;;;;4877131;29;20896;-77
2023/08/16 09:47:28;;;;;;;5.43;4.80;;;24.60;99.90;;;;;;4874691;29;20790;-77
2023/08/16 09:49:54;;;;;;;4.60;4.20;;;24.60;99.90;;;;;;4919923;23;20965;-84
2023/08/16 09:52:20;;;;;;;4.50;4.20;;;24.70;99.90;;;;;;4910345;29;20932;-84
2023/08/16 09:54:51;;;;;;;5.00;4.60;;;24.30;99.90;;;;;;4912667;29;20428;-84
2023/08/16 09:57:17;;;;;;;5.35;4.40;;;24.80;99.90;;;;;;4908996;29;20444;-85
2023/08/16 09:59:43;;;;;;;5.20;4.70;;;24.90;99.90;;;;;;4899599;29;20458;-85
2023/08/16 10:02:12;;;;;;;5.68;4.85;;;23.90;99.90;;;;;;4894201;29;20427;-87
2023/08/16 10:04:39;;;;;;;4.95;4.45;;;24.90;99.90;;;;;;4899082;29;20411;-84
2023/08/16 10:07:11;;;;;;;5.20;4.68;;;25.50;99.90;;;;;;4895109;29;20489;-84
2023/08/16 10:09:37;;;;;;;4.83;4.33;;;26.20;99.90;;;;;;4896988;29;20410;-84
2023/08/16 10:12:03;;;;;;;5.07;4.57;;;26.00;99.90;;;;;;4896766;29;20853;-84
2023/08/16 10:14:30;;;;;;;4.53;4.10;;;25.30;99.90;;;;;;4899799;29;20867;-86
2023/08/16 10:17:03;;;;;;;5.20;4.70;;;25.70;99.90;;;;;;4900490;29;20828;-84
2023/08/16 10:19:33;;;;;;;4.50;4.10;;;25.60;99.90;;;;;;4902872;29;20478;-84
2023/08/16 10:22:00;;;;;;;5.07;4.57;;;25.50;99.90;;;;;;4900752;29;20406;-85
2023/08/16 10:24:29;;;;;;;4.65;4.35;;;24.40;99.90;;;;;;4902116;29;20407;-85
2023/08/16 10:26:57;;;;;;;5.03;4.53;;;24.80;99.90;;;;;;4899514;29;20403;-84
2023/08/16 10:29:24;;;;;;;5.00;4.40;;;26.30;99.90;;;;;;4902208;29;20440;-84
2023/08/16 10:31:52;;;;;;;5.65;4.22;;;25.90;99.90;;;;;;4903026;29;20410;-84
2023/08/16 10:34:20;;;;;;;5.05;4.55;;;26.40;99.90;;;;;;4904117;29;20968;-85
2023/08/16 10:36:46;;;;;;;5.75;4.32;;;26.10;99.90;;;;;;4901598;29;20926;-84
2023/08/16 10:39:21;;;;;;;4.82;4.43;;;26.20;99.90;;;;;;4903682;29;20415;-85
2023/08/16 10:41:46;;;;;;;5.70;4.30;;;26.20;99.90;;;;;;4901314;29;20415;-85
2023/08/16 10:44:22;;;;;;;4.90;4.40;;;28.10;99.90;;;;;;4908569;29;20395;-85
2023/08/16 10:46:49;;;;;;;6.20;4.60;;;26.30;99.90;;;;;;4920781;29;20403;-85
2023/08/16 10:49:15;;;;;;;4.70;4.30;;;26.70;99.90;;;;;;4920397;29;20418;-86
2023/08/16 10:51:45;;;;;;;5.90;4.30;;;27.40;99.90;;;;;;4916880;29;20497;-85
2023/08/16 10:54:11;;;;;;;5.03;4.63;;;26.50;99.90;;;;;;4900661;29;20485;-83
2023/08/16 10:56:47;;;;;;;4.95;4.50;;;26.60;99.90;;;;;;4898554;29;20410;-81
2023/08/16 10:59:13;;;;;;;4.85;4.45;;;26.70;99.90;;;;;;4900500;29;20403;-82
2023/08/16 11:01:47;;;;;;;4.72;4.28;;;26.80;99.90;;;;;;4900910;29;20391;-82
2023/08/16 11:04:13;;;;;;;4.90;4.50;;;26.40;99.90;;;;;;4900534;29;20445;-83
2023/08/16 11:06:39;;;;;;;5.03;4.50;;;27.40;99.90;;;;;;4903571;29;20555;-83
2023/08/16 11:09:06;;;;;;;5.07;4.35;;;27.20;99.90;;;;;;4902258;29;20402;-83
2023/08/16 11:11:32;;;;;;;5.18;4.45;;;27.20;99.90;;;;;;4903440;29;20981;-83
2023/08/16 11:14:00;;;;;;;5.50;4.68;;;26.40;99.90;;;;;;4904705;29;20391;-82
2023/08/16 11:16:26;;;;;;;5.18;4.60;;;27.20;99.90;;;;;;4904912;29;20426;-82
2023/08/16 11:18:51;;;;;;;5.20;4.20;;;28.20;99.90;;;;;;4902500;29;20865;-81
2023/08/16 11:21:17;;;;;;;5.22;4.70;;;27.40;99.90;;;;;;4905318;29;20456;-85
2023/08/16 11:23:43;;;;;;;4.23;3.93;;;27.70;99.90;;;;;;4904283;29;20458;-82
2023/08/16 11:26:10;;;;;;;4.88;4.38;;;28.10;99.90;;;;;;4902314;29;20485;-84
2023/08/16 11:28:40;;;;;;;4.65;4.25;;;26.70;99.90;;;;;;4905027;29;20423;-82
2023/08/16 11:31:07;;;;;;;6.03;4.55;;;28.00;99.90;;;;;;4898922;29;20783;-83
2023/08/16 11:33:33;;;;;;;5.10;4.13;;;28.60;99.90;;;;;;4899479;29;20391;-83
2023/08/16 11:36:04;;;;;;;4.93;4.53;;;27.90;99.90;;;;;;4891757;29;20434;-83
2023/08/16 11:38:29;;;;;;;4.50;4.10;;;28.30;99.90;;;;;;4899046;29;20391;-83
2023/08/16 11:40:55;;;;;;;5.50;4.27;;;29.20;99.90;;;;;;4898145;29;20406;-84
2023/08/16 11:43:28;;;;;;;4.38;3.97;;;29.80;99.90;;;;;;4899608;29;20480;-83
2023/08/16 11:45:54;;;;;;;3.88;3.40;;;29.80;99.90;;;;;;4900267;29;20402;-83
2023/08/16 11:48:20;;;;;;;5.68;3.90;;;31.00;99.90;;;;;;4899708;29;20414;-83
2023/08/16 11:50:46;;;;;;;7.10;3.40;;;30.00;99.90;;;;;;4899462;29;20415;-84
2023/08/16 11:53:16;;;;;;;4.18;3.63;;;32.00;99.90;;;;;;4899161;29;20493;-83
2023/08/16 11:55:42;;;;;;;5.30;3.90;;;30.80;99.90;;;;;;4901107;29;20395;-83
2023/08/16 11:58:11;;;;;;;4.47;4.07;;;31.40;99.90;;;;;;4899512;29;20402;-84
2023/08/16 12:00:42;;;;;;;5.10;3.40;;;30.70;99.90;;;;;;4900562;29;20408;-83
2023/08/16 12:03:11;;;;;;;3.70;3.40;;;30.90;99.90;;;;;;4903435;29;20431;-84
2023/08/16 12:05:38;;;;;;;4.30;3.90;;;29.90;99.90;;;;;;4901487;29;20411;-83
2023/08/16 12:08:06;;;;;;;3.70;3.40;;;29.60;99.90;;;;;;4899611;29;20407;-83
2023/08/16 12:10:32;;;;;;;4.30;3.90;;;29.60;99.90;;;;;;4900485;29;20419;-84
2023/08/16 12:12:58;;;;;;;3.85;3.45;;;29.80;99.90;;;;;;4896083;29;20387;-84
2023/08/16 12:15:26;;;;;;;4.80;4.00;;;29.80;99.90;;;;;;4913381;29;20391;-85
2023/08/16 12:17:52;;;;;;;4.50;4.10;;;29.50;99.90;;;;;;4915023;29;20399;-87
2023/08/16 12:20:18;;;;;;;5.22;4.15;;;31.60;99.90;;;;;;4912033;29;20398;-85
2023/08/16 12:22:47;;;;;;;4.45;4.15;;;30.00;99.90;;;;;;4908844;29;20399;-84
2023/08/16 12:25:12;;;;;;;4.88;4.30;;;29.60;99.90;;;;;;4901873;29;20403;-83
2023/08/16 12:27:38;;;;;;;4.90;4.50;;;29.60;99.90;;;;;;4900587;29;20655;-85
2023/08/16 12:30:05;;;;;;;4.22;3.83;;;29.60;99.90;;;;;;4899963;29;20391;-84
2023/08/16 12:32:31;;;;;;;4.50;4.10;;;28.80;99.90;;;;;;4903881;29;20408;-83
2023/08/16 12:34:57;;;;;;;5.50;4.50;;;28.90;99.90;;;;;;4902199;29;20399;-84
2023/08/16 12:37:22;;;;;;;4.60;4.20;;;28.50;99.90;;;;;;4904851;29;20399;-84
2023/08/16 12:39:48;;;;;;;5.18;4.78;;;28.50;99.90;;;;;;4900482;29;20970;-84
2023/08/16 12:42:13;;;;;;;4.60;4.20;;;29.10;99.90;;;;;;4901457;29;20399;-84
2023/08/16 12:44:39;;;;;;;5.20;4.27;;;30.80;99.90;;;;;;4902607;29;20438;-84